createdAt,value
2023-04-15T00:01:51.782Z,16.35
2023-04-15T00:04:18.523Z,19.15
2023-04-15T00:06:53.384Z,18.77
2023-04-15T00:09:20.983Z,20.55
2023-04-15T00:11:47.646Z,21.95
2023-04-15T00:14:14.321Z,21.58
2023-04-15T00:16:43.417Z,17.13
2023-04-15T00:19:10.090Z,21.60
2023-04-15T00:21:37.088Z,19.55
2023-04-15T00:24:03.884Z,20.85
2023-04-15T00:26:30.559Z,18.33
2023-04-15T00:28:57.161Z,25.48
2023-04-15T00:31:23.888Z,22.13
2023-04-15T00:33:50.510Z,21.38
2023-04-15T00:36:17.164Z,19.20
2023-04-15T00:38:43.986Z,20.05
2023-04-15T00:41:14.329Z,19.90
2023-04-15T00:43:42.413Z,19.95
2023-04-15T00:46:12.654Z,17.50
2023-04-15T00:48:39.793Z,20.35
2023-04-15T00:51:07.655Z,21.70
2023-04-15T00:53:34.460Z,22.52
2023-04-15T00:56:01.079Z,20.35
2023-04-15T00:58:28.218Z,21.08
2023-04-15T01:00:57.324Z,27.98
2023-04-15T01:03:24.440Z,21.45
2023-04-15T01:05:58.386Z,22.27
2023-04-15T01:08:31.196Z,20.98
2023-04-15T01:11:01.586Z,20.23
2023-04-15T01:13:28.701Z,24.33
2023-04-15T01:15:57.636Z,22.70
2023-04-15T01:18:24.635Z,20.25
2023-04-15T01:20:51.684Z,18.88
2023-04-15T01:23:18.725Z,20.08
2023-04-15T01:25:46.614Z,24.58
2023-04-15T01:28:13.231Z,19.80
2023-04-15T01:30:39.858Z,21.63
2023-04-15T01:33:06.755Z,21.58
2023-04-15T01:35:33.564Z,22.25
2023-04-15T01:38:06.176Z,23.70
2023-04-15T01:40:33.733Z,22.92
2023-04-15T01:43:01.282Z,16.55
2023-04-15T01:45:28.515Z,18.88
2023-04-15T01:47:55.148Z,18.08
2023-04-15T01:50:21.841Z,15.43
2023-04-15T01:52:48.591Z,17.40
2023-04-15T01:55:15.330Z,20.70
2023-04-15T01:57:43.729Z,19.15
2023-04-15T02:00:12.691Z,18.33
2023-04-15T02:02:39.570Z,21.70
2023-04-15T02:05:06.713Z,21.70
2023-04-15T02:07:33.425Z,21.17
2023-04-15T02:10:00.038Z,22.88
2023-04-15T02:12:27.286Z,21.40
2023-04-15T02:14:54.126Z,26.58
2023-04-15T02:17:20.811Z,25.15
2023-04-15T02:19:48.373Z,22.48
2023-04-15T02:22:18.763Z,22.77
2023-04-15T02:24:47.004Z,21.05
2023-04-15T02:27:20.243Z,22.48
2023-04-15T02:29:47.247Z,18.75
2023-04-15T02:32:14.258Z,21.83
2023-04-15T02:34:43.701Z,24.88
2023-04-15T02:37:14.550Z,25.88
2023-04-15T02:39:42.231Z,23.65
2023-04-15T02:42:08.813Z,24.60
2023-04-15T02:44:36.571Z,23.83
2023-04-15T02:47:04.898Z,21.52
2023-04-15T02:49:33.028Z,21.60
2023-04-15T02:52:00.162Z,21.10
2023-04-15T02:54:30.039Z,25.70
2023-04-15T02:56:56.762Z,26.30
2023-04-15T02:59:23.583Z,20.63
2023-04-15T03:01:50.558Z,23.80
2023-04-15T03:04:17.597Z,22.40
2023-04-15T03:06:44.429Z,21.65
2023-04-15T03:09:12.984Z,20.80
2023-04-15T03:14:09.957Z,18.42
2023-04-15T03:16:36.597Z,18.58
2023-04-15T03:19:03.430Z,18.55
2023-04-15T03:21:30.813Z,20.10
2023-04-15T03:23:57.704Z,18.05
2023-04-15T03:26:33.242Z,17.45
2023-04-15T03:29:00.038Z,21.25
2023-04-15T03:31:26.988Z,20.00
2023-04-15T03:33:53.726Z,21.80
2023-04-15T03:36:20.449Z,22.13
2023-04-15T03:38:47.063Z,18.67
2023-04-15T03:41:13.954Z,20.83
2023-04-15T03:43:42.660Z,21.15
2023-04-15T03:46:09.325Z,19.88
2023-04-15T03:48:36.249Z,18.23
2023-04-15T03:51:02.966Z,22.40
2023-04-15T03:53:29.581Z,19.13
2023-04-15T03:55:56.866Z,19.23
2023-04-15T03:58:23.546Z,23.08
2023-04-15T04:00:50.236Z,22.77
2023-04-15T04:03:17.662Z,22.42
2023-04-15T04:05:44.645Z,22.58
2023-04-15T04:08:13.914Z,21.88
2023-04-15T04:10:42.399Z,21.50
2023-04-15T04:13:09.094Z,24.23
2023-04-15T04:15:35.735Z,22.15
2023-04-15T04:18:02.447Z,24.75
2023-04-15T04:20:29.207Z,21.48
2023-04-15T04:22:56.069Z,24.23
2023-04-15T04:25:22.834Z,28.17
2023-04-15T04:27:49.474Z,25.63
2023-04-15T04:30:16.260Z,28.40
2023-04-15T04:32:43.585Z,27.25
2023-04-15T04:35:12.651Z,29.27
2023-04-15T04:37:39.189Z,26.13
2023-04-15T04:40:06.504Z,23.85
2023-04-15T04:42:33.227Z,24.75
2023-04-15T04:44:59.872Z,27.17
2023-04-15T04:47:26.604Z,26.75
2023-04-15T04:49:53.202Z,23.77
2023-04-15T04:52:19.829Z,24.20
2023-04-15T04:54:47.341Z,27.90
2023-04-15T04:57:14.032Z,30.88
2023-04-15T04:59:42.677Z,28.17
2023-04-15T05:02:09.401Z,26.75
2023-04-15T05:04:37.193Z,27.85
2023-04-15T05:07:03.978Z,30.92
2023-04-15T05:09:32.524Z,29.60
2023-04-15T05:16:53.698Z,26.83
2023-04-15T05:19:20.433Z,32.88
2023-04-15T05:21:47.221Z,27.40
2023-04-15T05:24:13.912Z,27.55
2023-04-15T05:26:43.010Z,26.23
2023-04-15T05:29:09.742Z,27.50
2023-04-15T05:31:36.887Z,28.13
2023-04-15T05:34:03.621Z,28.50
2023-04-15T05:36:31.517Z,27.63
2023-04-15T05:38:58.495Z,25.17
2023-04-15T05:41:25.358Z,27.23
2023-04-15T05:43:52.058Z,30.83
2023-04-15T05:46:18.721Z,30.63
2023-04-15T05:48:45.613Z,27.52
2023-04-15T05:51:12.992Z,25.05
2023-04-15T05:53:43.611Z,26.40
2023-04-15T05:56:11.639Z,22.90
2023-04-15T05:58:38.405Z,24.20
2023-04-15T06:01:05.666Z,25.38
2023-04-15T06:03:32.672Z,24.17
2023-04-15T06:06:00.921Z,25.00
2023-04-15T06:08:27.907Z,23.63
2023-04-15T06:10:54.548Z,25.67
2023-04-15T06:13:21.168Z,24.30
2023-04-15T06:15:47.937Z,24.80
2023-04-15T06:18:14.606Z,24.08
2023-04-15T06:20:43.426Z,22.83
2023-04-15T06:23:10.147Z,22.27
2023-04-15T06:25:36.769Z,20.33
2023-04-15T06:28:03.678Z,20.20
2023-04-15T06:30:30.696Z,21.27
2023-04-15T06:32:57.478Z,21.75
2023-04-15T06:35:24.410Z,20.98
2023-04-15T06:37:51.773Z,27.10
2023-04-15T06:40:18.502Z,20.42
2023-04-15T06:42:45.119Z,18.02
2023-04-15T06:45:12.532Z,18.40
2023-04-15T06:47:39.230Z,17.52
2023-04-15T06:50:06.709Z,16.98
2023-04-15T06:52:33.280Z,16.88
2023-04-15T06:55:00.255Z,18.55
2023-04-15T06:57:26.870Z,17.02
2023-04-15T06:59:54.707Z,15.43
2023-04-15T07:02:21.544Z,16.88
2023-04-15T07:04:48.928Z,15.77
2023-04-15T07:07:17.566Z,14.50
2023-04-15T07:09:44.941Z,14.75
2023-04-15T07:12:14.215Z,14.55
2023-04-15T07:14:42.815Z,14.18
2023-04-15T07:17:09.905Z,12.27
2023-04-15T07:19:37.790Z,12.88
2023-04-15T07:22:04.401Z,14.63
2023-04-15T07:24:31.241Z,13.93
2023-04-15T07:26:59.538Z,14.18
2023-04-15T07:29:27.418Z,11.43
2023-04-15T07:31:54.045Z,12.75
2023-04-15T07:34:21.100Z,11.93
2023-04-15T07:36:50.734Z,11.20
2023-04-15T07:39:18.170Z,12.93
2023-04-15T07:41:44.840Z,11.85
2023-04-15T07:44:12.726Z,12.90
2023-04-15T07:46:39.405Z,11.90
2023-04-15T07:49:06.078Z,12.23
2023-04-15T07:51:33.664Z,10.95
2023-04-15T07:54:00.269Z,12.35
2023-04-15T07:56:27.207Z,12.18
2023-04-15T07:58:53.842Z,12.13
2023-04-15T08:01:20.425Z,13.32
2023-04-15T08:03:47.287Z,12.88
2023-04-15T08:06:14.848Z,13.55
2023-04-15T08:08:44.065Z,11.10
2023-04-15T08:11:11.878Z,12.73
2023-04-15T08:13:38.452Z,12.32
2023-04-15T08:16:21.176Z,12.20
2023-04-15T08:18:49.306Z,13.38
2023-04-15T08:21:16.840Z,10.55
2023-04-15T08:23:45.278Z,9.60
2023-04-15T08:26:15.335Z,12.68
2023-04-15T08:28:46.001Z,10.48
2023-04-15T08:31:17.006Z,12.32
2023-04-15T08:33:44.490Z,12.32
2023-04-15T08:36:15.686Z,12.85
2023-04-15T08:38:44.779Z,11.80
2023-04-15T08:41:27.365Z,12.15
2023-04-15T08:43:58.470Z,11.25
2023-04-15T08:46:25.571Z,10.65
2023-04-15T08:48:56.493Z,12.85
2023-04-15T08:51:24.962Z,12.35
2023-04-15T08:53:52.699Z,11.90
2023-04-15T08:56:20.437Z,11.82
2023-04-15T08:58:47.801Z,13.10
2023-04-15T09:01:14.608Z,11.85
2023-04-15T09:03:48.833Z,12.30
2023-04-15T09:08:46.664Z,11.63
2023-04-15T09:11:14.003Z,12.65
2023-04-15T09:13:43.158Z,12.82
2023-04-15T09:16:14.719Z,11.88
2023-04-15T09:18:44.322Z,10.65
2023-04-15T09:21:14.594Z,11.18
2023-04-15T09:24:00.661Z,11.75
2023-04-15T09:26:34.932Z,12.48
2023-04-15T09:29:07.104Z,13.02
2023-04-15T09:31:33.813Z,12.35
2023-04-15T09:34:00.705Z,12.73
2023-04-15T09:36:29.962Z,11.82
2023-04-15T09:38:58.584Z,13.65
2023-04-15T09:41:28.676Z,15.15
2023-04-15T09:43:55.441Z,13.75
2023-04-15T09:46:43.681Z,15.20
2023-04-15T09:49:16.075Z,13.70
2023-04-15T09:51:51.316Z,16.23
2023-04-15T09:54:24.479Z,11.40
2023-04-15T09:56:51.362Z,15.32
2023-04-15T09:59:19.533Z,15.40
2023-04-15T10:01:47.240Z,15.98
2023-04-15T10:04:15.254Z,18.10
2023-04-15T10:06:44.943Z,15.57
2023-04-15T10:09:12.965Z,14.73
2023-04-15T10:11:40.087Z,17.17
2023-04-15T10:14:08.892Z,17.13
2023-04-15T10:16:39.708Z,16.25
2023-04-15T10:19:08.558Z,16.70
2023-04-15T10:21:37.766Z,17.02
2023-04-15T10:24:05.158Z,17.33
2023-04-15T10:26:32.115Z,15.38
2023-04-15T10:29:00.288Z,15.55
2023-04-15T10:31:27.247Z,18.55
2023-04-15T10:33:54.356Z,16.92
2023-04-15T10:36:21.696Z,17.77
2023-04-15T10:38:48.343Z,20.15
2023-04-15T10:41:28.226Z,16.92
2023-04-15T10:44:03.086Z,15.77
2023-04-15T10:46:44.876Z,15.95
2023-04-15T10:49:25.459Z,20.10
2023-04-15T10:51:54.108Z,17.40
2023-04-15T10:54:26.571Z,18.65
2023-04-15T10:57:21.418Z,15.55
2023-04-15T11:00:00.408Z,15.50
2023-04-15T11:02:54.750Z,18.23
2023-04-15T11:05:23.635Z,20.40
2023-04-15T11:07:55.011Z,20.27
2023-04-15T11:10:31.048Z,16.80
2023-04-15T11:13:00.088Z,19.40
2023-04-15T11:15:32.891Z,23.35
2023-04-15T11:18:13.165Z,15.32
2023-04-15T11:20:45.295Z,19.50
2023-04-15T11:23:15.843Z,18.88
2023-04-15T11:25:43.930Z,18.20
2023-04-15T11:28:12.749Z,20.08
2023-04-15T11:30:45.303Z,17.20
2023-04-15T11:33:15.017Z,18.30
2023-04-15T11:35:44.159Z,21.85
2023-04-15T11:38:15.754Z,18.73
2023-04-15T11:40:47.277Z,21.27
2023-04-15T11:43:21.035Z,18.10
2023-04-15T11:45:55.246Z,16.17
2023-04-15T11:48:24.783Z,16.70
2023-04-15T11:50:59.410Z,16.98
2023-04-15T11:53:37.972Z,14.93
2023-04-15T11:56:05.746Z,18.60
2023-04-15T11:58:37.953Z,14.05
2023-04-15T12:01:05.381Z,15.18
2023-04-15T12:03:37.316Z,18.30
2023-04-15T12:06:25.746Z,17.25
2023-04-15T12:09:00.192Z,14.55
2023-04-15T12:11:26.719Z,16.10
2023-04-15T12:14:03.195Z,14.68
2023-04-15T12:16:30.670Z,13.90
2023-04-15T12:18:59.152Z,15.95
2023-04-15T12:21:28.075Z,12.50
2023-04-15T12:24:02.369Z,15.25
2023-04-15T12:26:31.499Z,12.80
2023-04-15T12:29:03.544Z,15.07
2023-04-15T12:31:30.922Z,13.10
2023-04-15T12:33:58.796Z,13.25
2023-04-15T12:36:25.525Z,14.00
2023-04-15T12:38:52.420Z,12.55
2023-04-15T12:41:21.449Z,12.48
2023-04-15T12:43:48.042Z,12.40
2023-04-15T12:46:15.697Z,13.80
2023-04-15T12:48:43.698Z,12.95
2023-04-15T12:51:11.830Z,15.20
2023-04-15T12:58:32.108Z,13.18
2023-04-15T13:00:58.939Z,11.50
2023-04-15T13:03:25.574Z,18.63
2023-04-15T13:05:54.273Z,13.48
2023-04-15T13:08:21.399Z,14.48
2023-04-15T13:10:48.120Z,15.02
2023-04-15T13:13:14.831Z,13.02
2023-04-15T13:15:43.287Z,16.63
2023-04-15T13:18:11.769Z,14.32
2023-04-15T13:20:38.328Z,18.60
2023-04-15T13:23:05.060Z,14.43
2023-04-15T13:25:31.600Z,18.67
2023-04-15T13:27:58.272Z,13.68
2023-04-15T13:30:24.885Z,16.60
2023-04-15T13:32:52.146Z,16.30
2023-04-15T13:35:21.210Z,16.33
2023-04-15T13:37:47.826Z,17.77
2023-04-15T13:40:14.587Z,16.42
2023-04-15T13:42:45.860Z,16.42
2023-04-15T13:45:16.282Z,15.43
2023-04-15T13:47:46.241Z,16.77
2023-04-15T13:50:13.489Z,16.88
2023-04-15T13:52:40.141Z,15.30
2023-04-15T13:55:19.091Z,15.52
2023-04-15T13:57:47.900Z,14.35
2023-04-15T14:00:14.891Z,14.68
2023-04-15T14:02:44.954Z,15.23
2023-04-15T14:05:13.358Z,16.02
2023-04-15T14:07:43.003Z,15.77
2023-04-15T14:10:09.761Z,15.02
2023-04-15T14:12:36.388Z,14.93
2023-04-15T14:15:03.199Z,15.15
2023-04-15T14:17:30.133Z,15.65
2023-04-15T14:19:56.852Z,13.18
2023-04-15T14:22:23.493Z,14.50
2023-04-15T14:24:50.027Z,15.23
2023-04-15T14:27:16.782Z,11.98
2023-04-15T14:29:44.057Z,13.52
2023-04-15T14:32:14.102Z,16.23
2023-04-15T14:34:44.286Z,17.77
2023-04-15T14:37:13.548Z,14.25
2023-04-15T14:39:40.633Z,14.40
2023-04-15T14:42:08.784Z,13.68
2023-04-15T14:44:35.563Z,17.10
2023-04-15T14:47:02.227Z,15.10
2023-04-15T14:49:30.611Z,14.05
2023-04-15T14:54:23.648Z,13.32
2023-04-15T14:56:50.376Z,13.80
2023-04-15T14:59:17.215Z,14.35
2023-04-15T15:01:44.128Z,13.93
2023-04-15T15:04:12.354Z,16.60
2023-04-15T15:06:40.026Z,14.27
2023-04-15T15:09:07.777Z,14.77
2023-04-15T15:11:34.288Z,13.32
2023-04-15T15:14:01.909Z,13.55
2023-04-15T15:16:29.400Z,14.18
2023-04-15T15:18:56.139Z,15.70
2023-04-15T15:21:22.736Z,13.15
2023-04-15T15:23:49.540Z,14.20
2023-04-15T15:26:16.208Z,17.17
2023-04-15T15:28:45.541Z,15.55
2023-04-15T15:31:14.949Z,18.10
2023-04-15T15:33:47.776Z,13.68
2023-04-15T15:36:14.412Z,12.98
2023-04-15T15:38:43.821Z,13.23
2023-04-15T15:41:14.890Z,13.60
2023-04-15T15:43:43.611Z,13.15
2023-04-15T15:46:12.632Z,13.40
2023-04-15T15:48:43.619Z,14.13
2023-04-15T15:51:12.289Z,12.07
2023-04-15T15:53:38.932Z,11.35
2023-04-15T15:56:05.677Z,13.40
2023-04-15T15:58:32.301Z,11.57
2023-04-15T16:01:01.590Z,13.20
2023-04-15T16:03:29.222Z,13.10
2023-04-15T16:05:56.004Z,11.85
2023-04-15T16:08:22.660Z,12.00
2023-04-15T16:10:49.300Z,12.18
2023-04-15T16:13:16.962Z,11.07
2023-04-15T16:15:44.246Z,11.05
2023-04-15T16:18:12.285Z,12.48
2023-04-15T16:20:39.092Z,9.90
2023-04-15T16:23:15.318Z,13.02
2023-04-15T16:25:45.408Z,12.50
2023-04-15T16:28:25.087Z,12.13
2023-04-15T16:30:53.590Z,10.40
2023-04-15T16:33:21.716Z,11.32
2023-04-15T16:35:48.561Z,12.18
2023-04-15T16:38:15.742Z,11.90
2023-04-15T16:40:44.035Z,12.90
2023-04-15T16:43:12.885Z,12.27
2023-04-15T16:45:39.558Z,14.35
2023-04-15T16:48:06.453Z,12.93
2023-04-15T16:50:33.139Z,11.60
2023-04-15T16:52:59.779Z,12.23
2023-04-15T16:55:27.061Z,11.95
2023-04-15T16:58:01.662Z,10.55
2023-04-15T17:00:31.199Z,11.75
2023-04-15T17:02:58.459Z,10.73
2023-04-15T17:05:27.649Z,9.77
2023-04-15T17:07:54.405Z,11.43
2023-04-15T17:10:21.342Z,11.50
2023-04-15T17:12:48.073Z,11.30
2023-04-15T17:15:14.717Z,11.68
2023-04-15T17:17:43.605Z,12.43
2023-04-15T17:20:13.619Z,12.85
2023-04-15T17:22:42.992Z,12.40
2023-04-15T17:25:09.731Z,11.10
2023-04-15T17:27:38.638Z,12.40
2023-04-15T17:30:07.160Z,9.32
2023-04-15T17:32:34.903Z,11.95
2023-04-15T17:35:05.984Z,12.85
2023-04-15T17:37:34.627Z,12.23
2023-04-15T17:40:01.400Z,10.60
2023-04-15T17:42:28.013Z,12.40
2023-04-15T17:44:54.642Z,12.57
2023-04-15T17:47:21.346Z,12.80
2023-04-15T17:49:48.006Z,12.20
2023-04-15T17:52:14.857Z,13.40
2023-04-15T17:54:44.913Z,12.10
2023-04-15T17:57:14.546Z,12.40
2023-04-15T17:59:44.163Z,10.70
2023-04-15T18:02:15.606Z,15.23
2023-04-15T18:04:44.750Z,11.80
2023-04-15T18:07:13.258Z,13.25
2023-04-15T18:09:39.986Z,17.50
2023-04-15T18:12:07.749Z,13.48
2023-04-15T18:14:35.661Z,15.15
2023-04-15T18:17:02.962Z,14.20
2023-04-15T18:19:30.922Z,18.67
2023-04-15T18:22:00.275Z,13.25
2023-04-15T18:24:27.548Z,14.98
2023-04-15T18:26:54.253Z,11.57
2023-04-15T18:29:21.007Z,15.13
2023-04-15T18:31:47.855Z,11.95
2023-04-15T18:34:14.549Z,16.20
2023-04-15T18:36:42.880Z,13.85
2023-04-15T18:39:09.733Z,15.57
2023-04-15T18:41:36.589Z,16.58
2023-04-15T18:44:03.201Z,14.70
2023-04-15T18:46:29.773Z,16.77
2023-04-15T18:48:56.567Z,14.15
2023-04-15T18:51:23.236Z,14.80
2023-04-15T18:53:50.060Z,16.88
2023-04-15T18:56:16.695Z,15.00
2023-04-15T18:59:10.228Z,14.82
2023-04-15T19:01:31.676Z,15.18
2023-04-15T19:03:58.620Z,13.93
2023-04-15T19:06:26.805Z,14.45
2023-04-15T19:08:53.573Z,16.08
2023-04-15T19:11:20.340Z,16.23
2023-04-15T19:13:46.938Z,16.27
2023-04-15T19:16:13.721Z,15.05
2023-04-15T19:18:40.521Z,15.85
2023-04-15T19:21:08.863Z,20.92
2023-04-15T19:23:35.674Z,18.48
2023-04-15T19:26:02.861Z,15.52
2023-04-15T19:28:30.151Z,18.25
2023-04-15T19:30:58.015Z,21.73
2023-04-15T19:33:27.305Z,15.73
2023-04-15T19:35:53.957Z,18.83
2023-04-15T19:38:20.590Z,17.90
2023-04-15T19:40:47.205Z,17.08
2023-04-15T19:43:13.758Z,18.20
2023-04-15T19:45:40.625Z,14.98
2023-04-15T19:50:37.317Z,19.63
2023-04-15T19:53:04.163Z,21.55
2023-04-15T19:55:31.100Z,16.20
2023-04-15T19:57:57.704Z,18.73
2023-04-15T20:00:24.395Z,18.60
2023-04-15T20:02:51.173Z,21.88
2023-04-15T20:05:17.980Z,20.90
2023-04-15T20:07:47.688Z,22.45
2023-04-15T20:10:14.569Z,18.95
2023-04-15T20:12:52.110Z,21.35
2023-04-15T20:15:21.600Z,19.92
2023-04-15T20:17:48.341Z,16.77
2023-04-15T20:20:15.062Z,21.63
2023-04-15T20:22:46.572Z,17.42
2023-04-15T20:25:16.324Z,21.17
2023-04-15T20:27:45.987Z,19.13
2023-04-15T20:30:16.088Z,22.42
2023-04-15T20:32:44.260Z,19.65
2023-04-15T20:35:13.665Z,18.27
2023-04-15T20:37:44.016Z,18.15
2023-04-15T20:40:13.484Z,17.33
2023-04-15T20:42:40.142Z,14.75
2023-04-15T20:45:07.633Z,19.15
2023-04-15T20:47:34.403Z,16.25
2023-04-15T20:50:01.444Z,19.08
2023-04-15T20:52:28.114Z,19.50
2023-04-15T20:54:54.747Z,18.02
2023-04-15T20:57:21.496Z,13.57
2023-04-15T20:59:48.113Z,17.05
2023-04-15T21:02:14.820Z,14.20
2023-04-15T21:04:44.645Z,18.02
2023-04-15T21:07:12.158Z,16.17
2023-04-15T21:09:44.480Z,17.50
2023-04-15T21:12:14.038Z,17.38
2023-04-15T21:14:43.496Z,12.90
2023-04-15T21:17:11.290Z,15.70
2023-04-15T21:19:43.519Z,11.38
2023-04-15T21:22:10.141Z,19.52
2023-04-15T21:24:36.815Z,19.30
2023-04-15T21:27:03.580Z,18.33
2023-04-15T21:29:30.337Z,14.93
2023-04-15T21:32:00.205Z,15.20
2023-04-15T21:34:27.905Z,11.70
2023-04-15T21:36:54.584Z,15.60
2023-04-15T21:39:21.526Z,15.85
2023-04-15T21:41:48.191Z,17.75
2023-04-15T21:44:15.171Z,12.30
2023-04-15T21:46:45.691Z,16.73
2023-04-15T21:49:16.846Z,16.95
2023-04-15T21:51:43.964Z,19.05
2023-04-15T21:54:12.894Z,20.45
2023-04-15T21:56:39.646Z,17.20
2023-04-15T21:59:07.413Z,19.70
2023-04-15T22:01:35.427Z,18.02
2023-04-15T22:04:02.850Z,16.75
2023-04-15T22:06:29.666Z,18.17
2023-04-15T22:08:57.783Z,20.55
2023-04-15T22:11:28.448Z,18.48
2023-04-15T22:13:56.689Z,15.82
2023-04-15T22:16:27.756Z,14.82
2023-04-15T22:18:55.313Z,14.32
2023-04-15T22:21:22.171Z,17.05
2023-04-15T22:23:49.433Z,13.07
2023-04-15T22:26:16.012Z,15.25
2023-04-15T22:28:44.034Z,13.68
2023-04-15T22:31:14.868Z,14.88
2023-04-15T22:33:44.921Z,14.65
2023-04-15T22:36:14.999Z,14.13
2023-04-15T22:38:43.664Z,12.80
2023-04-15T22:41:13.272Z,12.43
2023-04-15T22:43:43.112Z,13.75
2023-04-15T22:46:09.802Z,13.18
2023-04-15T22:48:36.540Z,14.88
2023-04-15T22:51:05.093Z,11.95
2023-04-15T22:55:58.405Z,13.43
2023-04-15T22:58:25.003Z,14.63
2023-04-15T23:00:51.657Z,11.82
2023-04-15T23:03:18.351Z,11.85
2023-04-15T23:05:46.221Z,8.73
2023-04-15T23:08:13.123Z,12.07
2023-04-15T23:10:40.271Z,12.57
2023-04-15T23:13:06.840Z,11.68
2023-04-15T23:15:33.483Z,14.25
2023-04-15T23:18:00.574Z,16.00
2023-04-15T23:20:27.242Z,12.50
2023-04-15T23:22:53.873Z,11.18
2023-04-15T23:25:22.320Z,13.57
2023-04-15T23:30:15.589Z,13.48
2023-04-15T23:32:44.188Z,13.70
2023-04-15T23:35:13.489Z,11.20
2023-04-15T23:37:40.097Z,10.70
2023-04-15T23:40:07.335Z,11.43
2023-04-15T23:42:33.994Z,12.45
2023-04-15T23:45:00.828Z,12.38
2023-04-15T23:47:27.579Z,10.75
2023-04-15T23:49:54.172Z,12.20
2023-04-15T23:52:20.808Z,11.02
2023-04-15T23:54:47.339Z,13.20
2023-04-15T23:57:14.114Z,10.90
2023-04-15T23:59:43.350Z,13.48
